createdAt,value
2019-02-23T00:01:03.325Z,164.65
2019-02-23T00:03:35.946Z,161.03
2019-02-23T00:06:06.989Z,196.47
2019-02-23T00:08:38.094Z,201.22
2019-02-23T00:11:08.933Z,176.57
2019-02-23T00:13:40.061Z,165.85
2019-02-23T00:16:10.960Z,176.57
2019-02-23T00:18:42.098Z,185.03
2019-02-23T00:21:12.877Z,202.82
2019-02-23T00:23:43.786Z,181.67
2019-02-23T00:26:14.598Z,207.62
2019-02-23T00:28:45.681Z,202.28
2019-02-23T00:31:16.601Z,177.02
2019-02-23T00:33:47.453Z,164.05
2019-02-23T00:36:18.256Z,155.90
2019-02-23T00:38:49.210Z,159.87
2019-02-23T00:41:20.099Z,155.30
2019-02-23T00:43:51.645Z,165.32
2019-02-23T00:46:22.656Z,164.07
2019-02-23T00:48:53.624Z,157.15
2019-02-23T00:51:24.446Z,162.22
2019-02-23T00:53:55.394Z,152.12
2019-02-23T00:56:26.197Z,165.37
2019-02-23T00:58:58.100Z,161.40
2019-02-23T01:01:28.929Z,142.03
2019-02-23T01:03:59.907Z,144.87
2019-02-23T01:06:30.851Z,153.87
2019-02-23T01:09:01.751Z,153.20
2019-02-23T01:11:34.324Z,145.80
2019-02-23T01:14:05.386Z,167.87
2019-02-23T01:16:36.211Z,169.07
2019-02-23T01:19:07.357Z,159.40
2019-02-23T01:21:38.250Z,161.43
2019-02-23T01:24:09.200Z,168.37
2019-02-23T01:26:42.962Z,171.35
2019-02-23T01:29:15.006Z,161.47
2019-02-23T01:31:45.770Z,167.93
2019-02-23T01:34:16.724Z,149.53
2019-02-23T01:36:47.641Z,165.28
2019-02-23T01:39:19.893Z,154.10
2019-02-23T01:41:50.664Z,159.65
2019-02-23T01:44:21.604Z,157.90
2019-02-23T01:46:52.561Z,161.12
2019-02-23T01:49:23.531Z,155.20
2019-02-23T01:51:54.444Z,151.40
2019-02-23T01:54:25.356Z,151.15
2019-02-23T01:56:56.201Z,148.45
2019-02-23T01:59:27.039Z,158.82
2019-02-23T02:01:57.998Z,158.72
2019-02-23T02:04:29.057Z,161.05
2019-02-23T02:07:00.108Z,149.00
2019-02-23T02:09:30.981Z,159.60
2019-02-23T02:12:01.919Z,159.32
2019-02-23T02:14:32.799Z,159.97
2019-02-23T02:17:04.680Z,166.62
2019-02-23T02:19:35.745Z,152.80
2019-02-23T02:22:07.745Z,149.87
2019-02-23T02:24:39.707Z,139.07
2019-02-23T02:27:10.621Z,149.85
2019-02-23T02:29:41.726Z,135.43
2019-02-23T02:32:12.657Z,135.57
2019-02-23T02:34:43.681Z,133.72
2019-02-23T02:37:14.427Z,126.18
2019-02-23T02:39:45.250Z,135.88
2019-02-23T02:42:16.187Z,126.67
2019-02-23T02:44:46.969Z,124.90
2019-02-23T02:47:17.716Z,130.72
2019-02-23T02:49:48.608Z,126.05
2019-02-23T02:52:19.488Z,121.60
2019-02-23T02:54:50.922Z,130.80
2019-02-23T02:57:21.769Z,123.28
2019-02-23T02:59:52.657Z,130.50
2019-02-23T03:02:23.701Z,130.70
2019-02-23T03:04:54.460Z,129.78
2019-02-23T03:07:25.337Z,124.45
2019-02-23T03:09:56.132Z,130.87
2019-02-23T03:12:27.065Z,128.32
2019-02-23T03:14:58.183Z,127.75
2019-02-23T03:17:32.186Z,127.00
2019-02-23T03:20:03.130Z,120.60
2019-02-23T03:22:34.006Z,113.70
2019-02-23T03:25:05.095Z,116.30
2019-02-23T03:27:35.816Z,120.72
2019-02-23T03:30:08.252Z,116.37
2019-02-23T03:32:39.088Z,118.90
2019-02-23T03:35:11.115Z,123.50
2019-02-23T03:37:41.909Z,119.17
2019-02-23T03:40:12.836Z,123.30
2019-02-23T03:42:43.610Z,120.92
2019-02-23T03:45:14.406Z,116.75
2019-02-23T03:47:45.186Z,120.62
2019-02-23T03:50:16.222Z,114.75
2019-02-23T03:52:46.973Z,107.90
2019-02-23T03:55:17.790Z,123.30
2019-02-23T03:57:51.745Z,113.90
2019-02-23T04:00:22.758Z,121.02
2019-02-23T04:02:53.568Z,123.40
2019-02-23T04:05:24.440Z,124.15
2019-02-23T04:07:55.194Z,120.47
2019-02-23T04:10:26.057Z,118.93
2019-02-23T04:12:56.848Z,131.25
2019-02-23T04:15:27.670Z,129.55
2019-02-23T04:17:58.674Z,119.47
2019-02-23T04:20:29.616Z,114.47
2019-02-23T04:23:00.576Z,121.07
2019-02-23T04:25:31.581Z,103.60
2019-02-23T04:28:02.514Z,105.72
2019-02-23T04:30:33.402Z,118.15
2019-02-23T04:33:04.211Z,120.62
2019-02-23T04:35:35.149Z,105.43
2019-02-23T04:38:06.028Z,103.05
2019-02-23T04:40:36.902Z,102.67
2019-02-23T04:43:07.672Z,103.95
2019-02-23T04:45:38.728Z,102.65
2019-02-23T04:48:09.580Z,100.10
2019-02-23T04:50:40.610Z,114.92
2019-02-23T04:53:11.470Z,85.42
2019-02-23T04:55:42.372Z,91.57
2019-02-23T04:58:13.153Z,106.52
2019-02-23T05:00:45.004Z,54.85
2019-02-23T05:03:17.129Z,44.00
2019-02-23T05:05:49.183Z,38.23
2019-02-23T05:08:19.909Z,38.42
2019-02-23T05:10:51.798Z,46.42
2019-02-23T05:13:23.955Z,37.55
2019-02-23T05:15:54.839Z,34.23
2019-02-23T05:18:25.650Z,36.00
2019-02-23T05:20:56.558Z,36.20
2019-02-23T05:23:27.562Z,33.70
2019-02-23T05:25:58.460Z,31.40
2019-02-23T05:28:29.429Z,27.65
2019-02-23T05:31:00.464Z,22.48
2019-02-23T05:33:31.401Z,26.17
2019-02-23T05:36:02.304Z,23.20
2019-02-23T05:38:33.100Z,22.82
2019-02-23T05:41:05.324Z,28.20
2019-02-23T05:43:36.142Z,26.93
2019-02-23T05:46:07.273Z,21.37
2019-02-23T05:48:38.319Z,28.50
2019-02-23T05:51:09.236Z,23.40
2019-02-23T05:53:40.096Z,24.92
2019-02-23T05:56:13.888Z,18.15
2019-02-23T05:58:43.446Z,18.07
2019-02-23T06:01:14.524Z,16.02
2019-02-23T06:03:45.547Z,14.78
2019-02-23T06:06:16.608Z,12.68
2019-02-23T06:08:47.458Z,15.72
2019-02-23T06:11:18.537Z,21.75
2019-02-23T06:13:49.603Z,14.85
2019-02-23T06:16:20.680Z,13.40
2019-02-23T06:18:51.650Z,14.73
2019-02-23T06:21:22.610Z,16.12
2019-02-23T06:23:53.507Z,16.27
2019-02-23T06:26:57.137Z,15.10
2019-02-23T06:29:30.828Z,15.95
2019-02-23T06:32:01.880Z,14.23
2019-02-23T06:34:33.760Z,20.17
2019-02-23T06:37:04.783Z,19.23
2019-02-23T06:39:35.681Z,15.18
2019-02-23T06:42:06.724Z,17.37
2019-02-23T06:44:37.684Z,16.17
2019-02-23T06:47:08.861Z,16.73
2019-02-23T06:49:39.933Z,15.32
2019-02-23T06:52:10.866Z,15.55
2019-02-23T06:54:41.809Z,14.90
2019-02-23T06:57:12.947Z,11.43
2019-02-23T06:59:44.795Z,15.50
2019-02-23T07:02:15.912Z,12.15
2019-02-23T07:04:48.297Z,10.25
2019-02-23T07:07:19.386Z,10.30
2019-02-23T07:09:51.497Z,11.18
2019-02-23T07:12:23.584Z,14.07
2019-02-23T07:14:54.638Z,10.17
2019-02-23T07:17:37.842Z,8.18
2019-02-23T07:20:09.535Z,11.73
2019-02-23T07:22:40.884Z,11.53
2019-02-23T07:25:11.853Z,10.00
2019-02-23T07:27:43.226Z,8.07
2019-02-23T07:30:14.604Z,10.53
2019-02-23T07:32:45.701Z,7.22
2019-02-23T07:35:16.849Z,10.43
2019-02-23T07:37:47.979Z,9.93
2019-02-23T07:40:19.020Z,16.10
2019-02-23T07:42:50.272Z,14.47
2019-02-23T07:45:21.375Z,13.65
2019-02-23T07:47:52.382Z,10.38
2019-02-23T07:50:23.382Z,12.67
2019-02-23T07:52:54.499Z,14.57
2019-02-23T07:55:25.586Z,16.77
2019-02-23T07:57:56.597Z,17.10
2019-02-23T08:00:27.585Z,14.77
2019-02-23T08:02:58.672Z,22.10
2019-02-23T08:05:29.588Z,16.43
2019-02-23T08:08:00.618Z,16.53
2019-02-23T08:10:31.781Z,14.90
2019-02-23T08:13:03.163Z,10.50
2019-02-23T08:15:34.208Z,14.33
2019-02-23T08:18:05.809Z,10.50
2019-02-23T08:20:38.379Z,20.87
2019-02-23T08:23:09.850Z,19.73
2019-02-23T08:25:40.839Z,14.20
2019-02-23T08:28:11.759Z,11.47
2019-02-23T08:30:42.720Z,14.40
2019-02-23T08:33:13.906Z,15.67
2019-02-23T08:35:44.889Z,9.97
2019-02-23T08:38:16.005Z,15.03
2019-02-23T08:40:46.931Z,13.43
2019-02-23T08:43:20.625Z,13.43
2019-02-23T08:45:50.940Z,12.23
2019-02-23T08:48:22.937Z,12.53
2019-02-23T08:50:53.895Z,12.50
2019-02-23T08:53:24.901Z,12.47
2019-02-23T08:55:56.199Z,14.30
2019-02-23T08:58:27.313Z,10.63
2019-02-23T09:00:58.128Z,11.03
2019-02-23T09:03:29.622Z,13.00
2019-02-23T09:06:01.050Z,13.43
2019-02-23T09:08:32.160Z,13.60
2019-02-23T09:11:03.090Z,14.50
2019-02-23T09:13:34.134Z,15.40
2019-02-23T09:16:05.062Z,13.27
2019-02-23T09:18:36.609Z,12.93
2019-02-23T09:21:07.748Z,15.47
2019-02-23T09:23:39.880Z,17.00
2019-02-23T09:26:10.919Z,13.47
2019-02-23T09:28:41.967Z,10.33
2019-02-23T09:31:14.308Z,13.23
2019-02-23T09:33:45.418Z,10.53
2019-02-23T09:36:16.404Z,11.23
2019-02-23T09:38:47.712Z,8.83
2019-02-23T09:41:18.708Z,8.13
2019-02-23T09:43:50.509Z,5.87
2019-02-23T09:46:21.769Z,6.73
2019-02-23T09:48:52.843Z,6.77
2019-02-23T09:51:24.011Z,8.17
2019-02-23T09:53:55.009Z,6.30
2019-02-23T09:56:25.924Z,6.73
2019-02-23T09:58:57.238Z,6.83
2019-02-23T10:01:28.271Z,7.30
2019-02-23T10:03:59.302Z,8.67
2019-02-23T10:06:30.226Z,9.33
2019-02-23T10:09:01.222Z,7.37
2019-02-23T10:11:33.846Z,7.70
2019-02-23T10:14:07.333Z,9.00
2019-02-23T10:16:37.613Z,10.77
2019-02-23T10:19:08.739Z,12.43
2019-02-23T10:21:39.765Z,8.93
2019-02-23T10:24:10.930Z,10.67
2019-02-23T10:26:41.783Z,11.47
2019-02-23T10:29:12.835Z,8.57
2019-02-23T10:31:44.005Z,13.93
2019-02-23T10:34:15.356Z,11.27
2019-02-23T10:36:47.610Z,15.50
2019-02-23T10:39:19.485Z,13.33
2019-02-23T10:41:50.509Z,9.83
2019-02-23T10:44:21.540Z,8.37
2019-02-23T10:46:52.673Z,8.23
2019-02-23T10:49:23.556Z,10.87
2019-02-23T10:51:55.727Z,12.37
2019-02-23T10:54:28.143Z,17.03
2019-02-23T10:56:59.283Z,11.70
2019-02-23T10:59:30.822Z,11.03
2019-02-23T11:02:02.217Z,12.23
2019-02-23T11:04:33.445Z,9.97
2019-02-23T11:07:04.861Z,12.30
2019-02-23T11:09:38.335Z,12.00
2019-02-23T11:12:09.529Z,9.40
2019-02-23T11:14:40.841Z,10.23
2019-02-23T11:17:12.065Z,10.23
2019-02-23T11:19:43.059Z,8.80
2019-02-23T11:22:14.242Z,9.37
2019-02-23T11:24:45.780Z,8.23
2019-02-23T11:27:16.986Z,7.67
2019-02-23T11:29:48.407Z,8.83
2019-02-23T11:32:19.485Z,8.03
2019-02-23T11:34:51.555Z,8.17
2019-02-23T11:37:23.625Z,6.83
2019-02-23T11:39:55.119Z,10.77
2019-02-23T11:42:25.989Z,8.07
2019-02-23T11:44:57.164Z,10.43
2019-02-23T11:47:28.623Z,10.07
2019-02-23T11:49:59.771Z,11.80
2019-02-23T11:52:31.427Z,13.47
2019-02-23T11:55:02.540Z,9.03
2019-02-23T11:57:33.880Z,9.03
2019-02-23T12:00:05.966Z,9.90
2019-02-23T12:02:37.490Z,8.57
2019-02-23T12:05:09.144Z,10.87
2019-02-23T12:07:39.992Z,14.07
2019-02-23T12:10:12.317Z,14.13
2019-02-23T12:12:43.522Z,10.27
2019-02-23T12:15:15.424Z,7.43
2019-02-23T12:17:46.615Z,8.10
2019-02-23T12:20:18.480Z,9.07
2019-02-23T12:22:51.466Z,15.17
2019-02-23T12:25:23.162Z,43.87
2019-02-23T12:27:54.188Z,10.33
2019-02-23T12:30:25.861Z,8.73
2019-02-23T12:32:57.442Z,10.77
2019-02-23T12:35:28.620Z,7.43
2019-02-23T12:37:59.828Z,7.00
2019-02-23T12:40:31.139Z,7.00
2019-02-23T12:43:02.241Z,8.83
2019-02-23T12:45:33.763Z,9.70
2019-02-23T12:48:05.122Z,7.90
2019-02-23T12:50:36.594Z,7.87
2019-02-23T12:53:08.685Z,7.70
2019-02-23T12:55:39.892Z,9.47
2019-02-23T12:58:10.953Z,8.13
2019-02-23T13:00:42.456Z,8.20
2019-02-23T13:03:13.723Z,12.17
2019-02-23T13:05:44.770Z,8.20
2019-02-23T13:08:15.777Z,13.20
2019-02-23T13:10:49.591Z,13.93
2019-02-23T13:14:08.272Z,13.50
2019-02-23T13:17:14.762Z,15.03
2019-02-23T13:20:15.759Z,33.43
2019-02-23T13:23:21.940Z,18.73
2019-02-23T13:26:13.615Z,11.13
2019-02-23T13:29:31.809Z,11.63
2019-02-23T13:32:45.862Z,12.87
2019-02-23T13:35:43.802Z,12.57
2019-02-23T13:39:03.675Z,8.47
2019-02-23T13:42:09.234Z,7.93
2019-02-23T13:45:04.726Z,10.50
2019-02-23T13:48:21.265Z,9.50
2019-02-23T13:51:25.046Z,10.37
2019-02-23T13:54:38.903Z,11.83
2019-02-23T13:57:53.190Z,10.93
2019-02-23T14:00:45.891Z,11.73
2019-02-23T14:04:03.841Z,11.43
2019-02-23T14:06:47.377Z,15.73
2019-02-23T14:09:58.654Z,17.73
2019-02-23T14:13:05.339Z,20.87
2019-02-23T14:16:17.862Z,14.57
2019-02-23T14:19:19.452Z,15.27
2019-02-23T14:22:14.505Z,11.30
2019-02-23T14:25:47.829Z,10.23
2019-02-23T14:29:01.736Z,13.47
2019-02-23T14:32:08.679Z,18.10
2019-02-23T14:35:03.284Z,16.73
2019-02-23T14:38:09.741Z,15.93
2019-02-23T14:40:54.457Z,16.00
2019-02-23T14:44:02.515Z,19.87
2019-02-23T14:47:00.597Z,30.13
2019-02-23T14:50:11.219Z,12.83
2019-02-23T14:53:31.014Z,10.53
2019-02-23T14:56:39.216Z,13.43
2019-02-23T14:59:39.273Z,12.67
2019-02-23T15:02:43.273Z,11.47
2019-02-23T15:05:37.433Z,12.63
2019-02-23T15:08:52.455Z,21.23
2019-02-23T15:12:16.521Z,20.20
2019-02-23T15:15:35.245Z,13.13
2019-02-23T15:18:56.425Z,14.40
2019-02-23T15:21:50.469Z,16.63
2019-02-23T15:25:12.720Z,16.27
2019-02-23T15:28:37.601Z,17.33
2019-02-23T15:31:31.659Z,15.07
2019-02-23T15:34:46.753Z,14.87
2019-02-23T15:37:37.290Z,13.67
2019-02-23T15:40:37.271Z,13.20
2019-02-23T15:43:38.894Z,14.53
2019-02-23T15:46:45.075Z,15.97
2019-02-23T15:49:34.106Z,13.80
2019-02-23T15:52:07.075Z,12.27
2019-02-23T15:54:38.684Z,8.70
2019-02-23T15:57:09.721Z,15.67
2019-02-23T15:59:40.545Z,12.73
2019-02-23T16:02:11.786Z,13.93
2019-02-23T16:04:42.601Z,11.03
2019-02-23T16:07:13.643Z,16.07
2019-02-23T16:09:44.580Z,15.83
2019-02-23T16:12:15.687Z,12.57
2019-02-23T16:14:46.647Z,15.77
2019-02-23T16:17:17.767Z,15.70
2019-02-23T16:19:48.851Z,15.27
2019-02-23T16:22:19.932Z,16.13
2019-02-23T16:24:50.769Z,15.27
2019-02-23T16:27:21.766Z,15.67
2019-02-23T16:29:52.744Z,14.00
2019-02-23T16:32:23.734Z,18.57
2019-02-23T16:34:54.758Z,20.67
2019-02-23T16:37:25.724Z,20.13
2019-02-23T16:39:57.222Z,18.53
2019-02-23T16:42:28.197Z,17.30
2019-02-23T16:44:59.596Z,17.43
2019-02-23T16:47:30.647Z,15.00
2019-02-23T16:50:02.759Z,18.27
2019-02-23T16:52:40.681Z,14.27
2019-02-23T16:55:24.869Z,20.37
2019-02-23T16:57:57.750Z,25.87
2019-02-23T17:00:31.774Z,15.43
2019-02-23T17:03:16.654Z,16.97
2019-02-23T17:05:49.039Z,15.67
2019-02-23T17:08:21.250Z,19.47
2019-02-23T17:10:56.988Z,21.43
2019-02-23T17:13:29.072Z,19.13
2019-02-23T17:16:01.238Z,20.57
2019-02-23T17:18:33.763Z,21.67
2019-02-23T17:21:05.136Z,20.10
2019-02-23T17:23:36.129Z,22.93
2019-02-23T17:26:07.103Z,21.53
2019-02-23T17:28:38.805Z,19.93
2019-02-23T17:31:09.944Z,16.93
2019-02-23T17:33:41.595Z,22.83
2019-02-23T17:36:12.815Z,21.63
2019-02-23T17:38:44.808Z,26.70
2019-02-23T17:41:16.525Z,23.53
2019-02-23T17:43:48.215Z,24.10
2019-02-23T17:46:20.359Z,21.97
2019-02-23T17:48:52.179Z,21.20
2019-02-23T17:51:23.281Z,18.83
2019-02-23T17:53:54.996Z,19.50
2019-02-23T17:56:26.480Z,21.93
2019-02-23T17:58:58.218Z,26.73
2019-02-23T18:01:29.398Z,26.10
2019-02-23T18:04:00.508Z,25.37
2019-02-23T18:06:31.561Z,23.97
2019-02-23T18:09:02.670Z,25.17
2019-02-23T18:11:35.158Z,25.67
2019-02-23T18:14:06.946Z,23.57
2019-02-23T18:16:37.971Z,26.70
2019-02-23T18:19:09.572Z,23.03
2019-02-23T18:21:40.668Z,26.13
2019-02-23T18:24:11.716Z,26.30
2019-02-23T18:26:42.651Z,25.00
2019-02-23T18:29:13.755Z,24.57
2019-02-23T18:31:45.356Z,21.43
2019-02-23T18:34:16.462Z,19.33
2019-02-23T18:36:47.991Z,21.50
2019-02-23T18:39:19.153Z,25.23
2019-02-23T18:41:50.224Z,22.40
2019-02-23T18:44:21.862Z,24.43
2019-02-23T18:46:54.114Z,26.30
2019-02-23T18:49:26.259Z,22.97
2019-02-23T18:51:58.097Z,23.33
2019-02-23T18:54:30.360Z,26.53
2019-02-23T18:57:02.252Z,26.80
2019-02-23T18:59:34.680Z,28.30
2019-02-23T19:02:06.589Z,25.20
2019-02-23T19:04:38.481Z,25.23
2019-02-23T19:07:10.090Z,22.70
2019-02-23T19:09:41.287Z,23.67
2019-02-23T19:12:12.534Z,19.83
2019-02-23T19:14:44.155Z,22.27
2019-02-23T19:17:15.717Z,20.53
2019-02-23T19:19:47.027Z,24.70
2019-02-23T19:22:19.715Z,19.87
2019-02-23T19:24:51.694Z,17.57
2019-02-23T19:27:23.415Z,19.77
2019-02-23T19:29:54.376Z,16.13
2019-02-23T19:32:25.115Z,17.57
2019-02-23T19:34:55.977Z,20.47
2019-02-23T19:37:26.749Z,23.30
2019-02-23T19:39:57.734Z,15.80
2019-02-23T19:42:28.671Z,16.77
2019-02-23T19:45:00.410Z,20.93
2019-02-23T19:47:34.797Z,21.70
2019-02-23T19:50:16.159Z,19.47
2019-02-23T19:55:47.081Z,19.27
2019-02-23T19:58:18.568Z,19.10
2019-02-23T20:00:50.445Z,20.10
2019-02-23T20:03:22.240Z,21.40
2019-02-23T20:05:53.429Z,20.17
2019-02-23T20:08:24.439Z,19.53
2019-02-23T20:10:55.646Z,20.27
2019-02-23T20:13:26.639Z,20.87
2019-02-23T20:15:58.104Z,19.27
2019-02-23T20:18:29.331Z,16.20
2019-02-23T20:21:00.545Z,22.17
2019-02-23T20:23:31.655Z,25.40
2019-02-23T20:26:02.592Z,24.83
2019-02-23T20:28:33.729Z,22.93
2019-02-23T20:31:04.792Z,27.50
2019-02-23T20:33:36.522Z,23.77
2019-02-23T20:36:07.853Z,24.83
2019-02-23T20:38:39.639Z,22.97
2019-02-23T20:41:10.952Z,25.13
2019-02-23T20:44:30.998Z,24.33
2019-02-23T20:47:02.311Z,24.90
2019-02-23T20:49:34.055Z,21.67
2019-02-23T20:52:05.604Z,21.90
2019-02-23T20:54:37.301Z,19.20
2019-02-23T20:57:13.954Z,23.07
2019-02-23T20:59:42.321Z,20.33
2019-02-23T21:02:14.128Z,21.33
2019-02-23T21:04:45.433Z,18.57
2019-02-23T21:07:16.553Z,21.17
2019-02-23T21:09:47.605Z,21.57
2019-02-23T21:12:18.595Z,17.57
2019-02-23T21:14:50.332Z,28.77
2019-02-23T21:17:21.364Z,19.87
2019-02-23T21:19:52.536Z,21.93
2019-02-23T21:22:23.688Z,19.67
2019-02-23T21:24:54.633Z,19.03
2019-02-23T21:27:25.818Z,19.33
2019-02-23T21:29:56.714Z,20.60
2019-02-23T21:32:27.787Z,20.90
2019-02-23T21:34:58.924Z,16.40
2019-02-23T21:37:30.041Z,20.10
2019-02-23T21:40:01.073Z,18.33
2019-02-23T21:42:33.487Z,19.93
2019-02-23T21:45:04.963Z,17.30
2019-02-23T21:47:36.518Z,19.20
2019-02-23T21:50:09.436Z,17.93
2019-02-23T21:52:42.362Z,14.10
2019-02-23T21:55:14.006Z,14.47
2019-02-23T21:57:45.738Z,15.47
2019-02-23T22:00:17.544Z,11.67
2019-02-23T22:02:49.983Z,12.20
2019-02-23T22:05:21.195Z,13.67
2019-02-23T22:07:52.535Z,15.57
2019-02-23T22:10:23.484Z,11.23
2019-02-23T22:12:54.656Z,14.57
2019-02-23T22:15:28.278Z,15.03
2019-02-23T22:17:59.357Z,17.03
2019-02-23T22:20:30.914Z,16.60
2019-02-23T22:23:02.142Z,15.10
2019-02-23T22:25:33.774Z,12.53
2019-02-23T22:28:05.352Z,14.67
2019-02-23T22:30:36.332Z,16.77
2019-02-23T22:33:07.876Z,15.63
2019-02-23T22:35:39.575Z,16.37
2019-02-23T22:38:10.679Z,16.00
2019-02-23T22:40:41.836Z,14.40
2019-02-23T22:43:14.164Z,16.57
2019-02-23T22:45:45.630Z,18.13
2019-02-23T22:48:16.715Z,15.57
2019-02-23T22:50:48.329Z,15.67
2019-02-23T22:53:19.364Z,16.17
2019-02-23T22:55:50.902Z,14.53
2019-02-23T22:58:23.718Z,14.57
2019-02-23T23:00:58.257Z,13.33
2019-02-23T23:03:31.430Z,14.37
2019-02-23T23:06:03.110Z,15.97
2019-02-23T23:08:34.220Z,12.43
2019-02-23T23:11:05.341Z,17.13
2019-02-23T23:13:36.900Z,14.43
2019-02-23T23:16:09.204Z,14.10
2019-02-23T23:18:41.195Z,17.20
2019-02-23T23:21:12.200Z,15.60
2019-02-23T23:23:43.271Z,14.67
2019-02-23T23:26:14.183Z,15.07
2019-02-23T23:28:45.816Z,14.37
2019-02-23T23:31:19.721Z,11.87
2019-02-23T23:33:50.870Z,12.20
2019-02-23T23:36:22.479Z,11.30
2019-02-23T23:38:53.996Z,12.63
2019-02-23T23:41:24.972Z,12.27
2019-02-23T23:43:56.675Z,15.67
2019-02-23T23:46:27.703Z,12.77
2019-02-23T23:48:58.739Z,13.40
2019-02-23T23:51:29.635Z,12.97
2019-02-23T23:54:01.364Z,13.20
2019-02-23T23:56:32.941Z,13.93
2019-02-23T23:59:04.628Z,11.37
